createdAt,value
2023-05-13T00:01:39.207Z,16.00
2023-05-13T00:04:07.215Z,15.96
2023-05-13T00:06:36.052Z,15.90
2023-05-13T00:09:04.108Z,15.89
2023-05-13T00:11:31.701Z,15.85
2023-05-13T00:13:59.167Z,15.84
2023-05-13T00:16:28.649Z,15.79
2023-05-13T00:18:56.527Z,15.75
2023-05-13T00:21:24.192Z,15.72
2023-05-13T00:23:51.741Z,15.69
2023-05-13T00:26:19.279Z,15.66
2023-05-13T00:28:49.426Z,15.62
2023-05-13T00:31:18.229Z,15.55
2023-05-13T00:33:45.975Z,15.50
2023-05-13T00:36:13.585Z,15.44
2023-05-13T00:38:41.294Z,15.44
2023-05-13T00:41:08.784Z,15.41
2023-05-13T00:43:36.359Z,15.38
2023-05-13T00:46:04.397Z,15.34
2023-05-13T00:48:33.430Z,15.31
2023-05-13T00:51:01.038Z,15.28
2023-05-13T00:53:28.797Z,15.25
2023-05-13T00:55:56.337Z,15.21
2023-05-13T00:58:23.951Z,15.18
2023-05-13T01:01:28.892Z,15.16
2023-05-13T01:04:42.596Z,15.17
2023-05-13T01:07:41.725Z,15.22
2023-05-13T01:10:56.920Z,15.22
2023-05-13T01:13:30.544Z,15.23
2023-05-13T01:16:09.938Z,15.19
2023-05-13T01:18:46.078Z,15.12
2023-05-13T01:21:13.847Z,15.06
2023-05-13T01:23:41.420Z,15.02
2023-05-13T01:26:10.169Z,14.95
2023-05-13T01:28:37.824Z,14.91
2023-05-13T01:31:06.425Z,14.87
2023-05-13T01:33:34.129Z,14.82
2023-05-13T01:36:02.569Z,14.81
2023-05-13T01:38:33.939Z,14.82
2023-05-13T01:41:01.988Z,14.77
2023-05-13T01:43:31.431Z,14.76
2023-05-13T01:46:00.463Z,14.74
2023-05-13T01:48:28.192Z,14.71
2023-05-13T01:50:56.281Z,14.67
2023-05-13T01:53:24.416Z,14.64
2023-05-13T01:55:53.938Z,14.59
2023-05-13T01:58:22.275Z,14.54
2023-05-13T02:00:49.997Z,14.52
2023-05-13T02:03:19.298Z,14.48
2023-05-13T02:05:48.552Z,14.41
2023-05-13T02:08:16.115Z,14.36
2023-05-13T02:10:43.681Z,14.32
2023-05-13T02:13:11.987Z,14.30
2023-05-13T02:15:41.058Z,14.28
2023-05-13T02:18:08.633Z,14.29
2023-05-13T02:20:36.192Z,14.25
2023-05-13T02:23:03.688Z,14.21
2023-05-13T02:25:31.217Z,14.15
2023-05-13T02:28:00.156Z,14.09
2023-05-13T02:30:27.821Z,14.06
2023-05-13T02:32:56.636Z,14.03
2023-05-13T02:35:25.957Z,14.02
2023-05-13T02:37:53.696Z,13.99
2023-05-13T02:40:22.252Z,13.97
2023-05-13T02:42:50.895Z,13.94
2023-05-13T02:45:24.108Z,13.92
2023-05-13T02:47:54.500Z,13.89
2023-05-13T02:50:22.536Z,13.85
2023-05-13T02:52:50.256Z,13.83
2023-05-13T02:55:18.453Z,13.77
2023-05-13T02:57:46.039Z,13.75
2023-05-13T03:00:14.629Z,13.73
2023-05-13T03:02:42.228Z,13.73
2023-05-13T03:05:09.930Z,13.72
2023-05-13T03:07:37.440Z,13.72
2023-05-13T03:10:06.606Z,13.71
2023-05-13T03:12:34.198Z,13.70
2023-05-13T03:15:01.714Z,13.67
2023-05-13T03:17:31.853Z,13.66
2023-05-13T03:19:59.416Z,13.62
2023-05-13T03:22:27.217Z,13.60
2023-05-13T03:24:55.004Z,13.55
2023-05-13T03:27:26.294Z,13.50
2023-05-13T03:29:53.848Z,13.50
2023-05-13T03:32:22.865Z,13.48
2023-05-13T03:34:51.623Z,13.48
2023-05-13T03:37:19.233Z,13.48
2023-05-13T03:39:46.789Z,13.46
2023-05-13T03:42:14.325Z,13.41
2023-05-13T03:44:42.030Z,13.38
2023-05-13T03:47:11.672Z,13.39
2023-05-13T03:49:39.455Z,13.43
2023-05-13T03:52:08.028Z,13.44
2023-05-13T03:54:35.776Z,13.46
2023-05-13T03:57:03.378Z,13.50
2023-05-13T03:59:30.943Z,13.53
2023-05-13T04:01:58.475Z,13.55
2023-05-13T04:04:26.184Z,13.59
2023-05-13T04:06:53.720Z,13.62
2023-05-13T04:09:21.211Z,13.62
2023-05-13T04:11:48.801Z,13.65
2023-05-13T04:14:18.180Z,13.68
2023-05-13T04:16:45.777Z,13.72
2023-05-13T04:19:13.367Z,13.73
2023-05-13T04:21:40.991Z,13.78
2023-05-13T04:24:08.549Z,13.83
2023-05-13T04:26:38.529Z,13.87
2023-05-13T04:29:06.196Z,13.88
2023-05-13T04:31:33.858Z,13.90
2023-05-13T04:34:01.676Z,13.93
2023-05-13T04:36:29.273Z,13.98
2023-05-13T04:38:57.575Z,14.04
2023-05-13T04:41:25.204Z,14.08
2023-05-13T04:43:52.727Z,14.12
2023-05-13T04:46:21.069Z,14.16
2023-05-13T04:48:50.138Z,14.21
2023-05-13T04:51:19.586Z,14.22
2023-05-13T04:53:47.869Z,14.23
2023-05-13T04:56:16.572Z,14.24
2023-05-13T04:58:44.298Z,14.22
2023-05-13T05:01:14.104Z,14.24
2023-05-13T05:03:41.883Z,14.21
2023-05-13T05:06:09.859Z,14.23
2023-05-13T05:08:37.540Z,14.25
2023-05-13T05:11:05.885Z,14.23
2023-05-13T05:13:35.753Z,14.28
2023-05-13T05:16:03.278Z,14.31
2023-05-13T05:18:31.878Z,14.31
2023-05-13T05:21:01.774Z,14.34
2023-05-13T05:23:30.055Z,14.34
2023-05-13T05:26:08.387Z,14.34
2023-05-13T05:28:40.109Z,14.37
2023-05-13T05:31:08.292Z,14.40
2023-05-13T05:33:36.809Z,14.38
2023-05-13T05:36:04.812Z,14.35
2023-05-13T05:38:32.344Z,14.33
2023-05-13T05:41:01.234Z,14.37
2023-05-13T05:43:29.599Z,14.31
2023-05-13T05:45:57.137Z,14.26
2023-05-13T05:48:26.205Z,14.17
2023-05-13T05:50:55.423Z,14.14
2023-05-13T05:53:29.668Z,14.14
2023-05-13T05:55:57.326Z,14.15
2023-05-13T05:58:26.960Z,14.20
2023-05-13T06:00:54.813Z,14.28
2023-05-13T06:03:22.522Z,14.36
2023-05-13T06:05:50.314Z,14.41
2023-05-13T06:08:19.498Z,14.45
2023-05-13T06:10:47.079Z,14.48
2023-05-13T06:13:15.339Z,14.49
2023-05-13T06:15:42.873Z,14.43
2023-05-13T06:18:12.407Z,14.46
2023-05-13T06:20:40.023Z,14.52
2023-05-13T06:23:09.646Z,14.55
2023-05-13T06:25:37.133Z,14.64
2023-05-13T06:28:08.242Z,14.76
2023-05-13T06:30:36.593Z,14.85
2023-05-13T06:33:04.578Z,14.89
2023-05-13T06:35:32.062Z,14.95
2023-05-13T06:38:01.803Z,15.04
2023-05-13T06:40:29.904Z,15.14
2023-05-13T06:42:57.889Z,15.24
2023-05-13T06:45:38.027Z,15.32
2023-05-13T06:48:06.157Z,15.35
2023-05-13T06:50:33.887Z,15.40
2023-05-13T06:53:01.504Z,15.45
2023-05-13T06:55:29.142Z,15.45
2023-05-13T06:57:56.609Z,15.45
2023-05-13T07:00:24.858Z,15.53
2023-05-13T07:02:52.436Z,15.52
2023-05-13T07:05:19.947Z,15.60
2023-05-13T07:07:47.614Z,15.66
2023-05-13T07:10:15.143Z,15.71
2023-05-13T07:12:42.633Z,15.85
2023-05-13T07:15:10.634Z,15.92
2023-05-13T07:17:38.255Z,15.97
2023-05-13T07:20:07.051Z,15.95
2023-05-13T07:22:35.490Z,15.98
2023-05-13T07:25:03.035Z,15.99
2023-05-13T07:27:30.676Z,16.01
2023-05-13T07:29:58.339Z,16.03
2023-05-13T07:32:25.853Z,16.03
2023-05-13T07:34:53.377Z,16.04
2023-05-13T07:37:20.869Z,16.05
2023-05-13T07:39:48.397Z,16.11
2023-05-13T07:42:16.750Z,16.11
2023-05-13T07:44:44.230Z,16.16
2023-05-13T07:47:13.592Z,16.13
2023-05-13T07:49:41.265Z,16.13
2023-05-13T07:52:09.006Z,16.14
2023-05-13T07:54:36.598Z,16.18
2023-05-13T07:57:04.110Z,16.22
2023-05-13T07:59:31.836Z,16.28
2023-05-13T08:01:59.379Z,16.32
2023-05-13T08:04:27.059Z,16.30
2023-05-13T08:06:54.677Z,16.33
2023-05-13T08:09:22.161Z,16.30
2023-05-13T08:11:50.077Z,16.26
2023-05-13T08:14:17.601Z,16.25
2023-05-13T08:16:45.272Z,16.27
2023-05-13T08:19:16.089Z,16.24
2023-05-13T08:21:44.392Z,16.25
2023-05-13T08:24:12.356Z,16.29
2023-05-13T08:26:39.895Z,16.30
2023-05-13T08:29:07.534Z,16.34
2023-05-13T08:31:35.030Z,16.37
2023-05-13T08:34:02.810Z,16.39
2023-05-13T08:36:30.324Z,16.42
2023-05-13T08:38:58.377Z,16.45
2023-05-13T08:41:26.974Z,16.43
2023-05-13T08:43:57.644Z,16.41
2023-05-13T08:46:28.228Z,16.46
2023-05-13T08:48:56.702Z,16.52
2023-05-13T08:51:24.644Z,16.59
2023-05-13T08:53:53.391Z,16.61
2023-05-13T08:56:22.418Z,16.63
2023-05-13T08:58:49.926Z,16.67
2023-05-13T09:01:17.521Z,16.69
2023-05-13T09:04:02.207Z,16.72
2023-05-13T09:06:29.777Z,16.77
2023-05-13T09:08:57.572Z,16.79
2023-05-13T09:11:26.227Z,16.84
2023-05-13T09:13:58.827Z,16.89
2023-05-13T09:16:29.485Z,16.93
2023-05-13T09:19:04.065Z,16.96
2023-05-13T09:21:35.420Z,17.00
2023-05-13T09:24:08.646Z,17.01
2023-05-13T09:26:37.992Z,17.00
2023-05-13T09:29:26.151Z,17.02
2023-05-13T09:32:01.599Z,17.07
2023-05-13T09:34:34.857Z,17.02
2023-05-13T09:37:08.046Z,16.97
2023-05-13T09:39:41.372Z,16.91
2023-05-13T09:42:17.088Z,16.91
2023-05-13T09:44:46.429Z,16.96
2023-05-13T09:47:15.449Z,17.00
2023-05-13T09:49:45.214Z,16.98
2023-05-13T09:52:16.971Z,17.00
2023-05-13T09:54:44.777Z,17.10
2023-05-13T09:57:13.625Z,17.26
2023-05-13T09:59:41.761Z,17.29
2023-05-13T10:02:10.088Z,17.30
2023-05-13T10:04:38.306Z,17.38
2023-05-13T10:07:06.369Z,17.48
2023-05-13T10:09:37.472Z,17.52
2023-05-13T10:12:08.682Z,17.62
2023-05-13T10:14:39.916Z,17.74
2023-05-13T10:17:09.157Z,17.85
2023-05-13T10:19:37.460Z,17.96
2023-05-13T10:22:05.662Z,18.05
2023-05-13T10:24:35.507Z,18.08
2023-05-13T10:27:06.875Z,18.15
2023-05-13T10:29:37.724Z,18.25
2023-05-13T10:32:07.334Z,18.33
2023-05-13T10:34:37.161Z,18.40
2023-05-13T10:37:50.179Z,18.52
2023-05-13T10:40:59.384Z,18.66
2023-05-13T10:43:32.631Z,18.72
2023-05-13T10:46:06.542Z,18.77
2023-05-13T10:48:43.215Z,18.84
2023-05-13T10:51:16.131Z,18.89
2023-05-13T10:53:52.792Z,18.99
2023-05-13T10:56:23.094Z,19.02
2023-05-13T10:59:04.830Z,19.05
2023-05-13T11:01:45.779Z,19.17
2023-05-13T11:04:17.597Z,19.23
2023-05-13T11:06:47.385Z,19.31
2023-05-13T11:09:30.664Z,19.42
2023-05-13T11:12:03.421Z,19.52
2023-05-13T11:14:31.544Z,19.58
2023-05-13T11:17:04.466Z,19.63
2023-05-13T11:19:34.888Z,19.56
2023-05-13T11:22:10.657Z,19.55
2023-05-13T11:24:38.868Z,19.60
2023-05-13T11:27:18.584Z,19.63
2023-05-13T11:29:55.449Z,19.67
2023-05-13T11:32:53.868Z,19.59
2023-05-13T11:35:29.398Z,19.56
2023-05-13T11:38:00.428Z,19.61
2023-05-13T11:40:34.534Z,19.71
2023-05-13T11:43:02.474Z,19.77
2023-05-13T11:45:30.840Z,19.78
2023-05-13T11:47:59.058Z,19.74
2023-05-13T11:50:30.838Z,19.66
2023-05-13T11:53:01.190Z,19.67
2023-05-13T11:55:31.501Z,19.64
2023-05-13T11:57:59.926Z,19.63
2023-05-13T12:00:30.913Z,19.61
2023-05-13T12:02:59.714Z,19.64
2023-05-13T12:05:27.702Z,19.72
2023-05-13T12:07:58.902Z,19.81
2023-05-13T12:10:27.115Z,19.85
2023-05-13T12:12:55.015Z,19.95
2023-05-13T12:15:23.073Z,20.03
2023-05-13T12:17:51.359Z,20.16
2023-05-13T12:20:21.770Z,20.31
2023-05-13T12:22:52.366Z,20.45
2023-05-13T12:25:35.714Z,20.52
2023-05-13T12:28:17.564Z,20.58
2023-05-13T12:30:57.747Z,20.58
2023-05-13T12:33:27.536Z,20.55
2023-05-13T12:36:17.449Z,20.59
2023-05-13T12:39:09.024Z,20.60
2023-05-13T12:41:42.235Z,20.66
2023-05-13T12:44:14.152Z,20.74
2023-05-13T12:46:57.793Z,20.81
2023-05-13T12:49:25.557Z,20.84
2023-05-13T12:51:53.079Z,20.87
2023-05-13T12:54:21.509Z,20.96
2023-05-13T12:56:49.054Z,21.10
2023-05-13T12:59:16.792Z,21.24
2023-05-13T13:01:44.299Z,21.35
2023-05-13T13:04:12.043Z,21.41
2023-05-13T13:06:40.234Z,21.52
2023-05-13T13:09:07.716Z,21.60
2023-05-13T13:11:35.225Z,21.63
2023-05-13T13:14:02.741Z,21.61
2023-05-13T13:16:30.624Z,21.42
2023-05-13T13:19:01.496Z,21.31
2023-05-13T13:21:29.633Z,21.28
2023-05-13T13:23:57.147Z,21.25
2023-05-13T13:26:24.677Z,21.24
2023-05-13T13:28:52.152Z,21.21
2023-05-13T13:31:19.823Z,21.14
2023-05-13T13:33:47.345Z,21.09
2023-05-13T13:36:14.847Z,21.10
2023-05-13T13:38:42.362Z,21.08
2023-05-13T13:41:09.884Z,21.11
2023-05-13T13:43:37.751Z,21.13
2023-05-13T13:46:05.305Z,21.15
2023-05-13T13:48:32.855Z,21.30
2023-05-13T13:51:00.501Z,21.59
2023-05-13T13:53:27.981Z,21.96
2023-05-13T13:55:55.535Z,22.42
2023-05-13T13:58:23.641Z,22.78
2023-05-13T14:00:52.144Z,22.85
2023-05-13T14:03:19.805Z,22.83
2023-05-13T14:05:48.197Z,22.80
2023-05-13T14:08:15.864Z,22.78
2023-05-13T14:10:43.615Z,22.83
2023-05-13T14:13:11.121Z,22.83
2023-05-13T14:15:39.102Z,22.80
2023-05-13T14:18:08.347Z,22.83
2023-05-13T14:20:36.423Z,22.75
2023-05-13T14:23:05.364Z,22.68
2023-05-13T14:25:33.177Z,22.61
2023-05-13T14:28:00.723Z,22.51
2023-05-13T14:30:28.237Z,22.46
2023-05-13T14:32:55.895Z,22.41
2023-05-13T14:35:23.433Z,22.34
2023-05-13T14:37:50.942Z,22.35
2023-05-13T14:40:18.547Z,22.39
2023-05-13T14:42:46.127Z,22.47
2023-05-13T14:45:16.764Z,22.52
2023-05-13T14:47:45.309Z,22.56
2023-05-13T14:50:12.967Z,22.53
2023-05-13T14:52:40.482Z,22.53
2023-05-13T14:55:08.443Z,22.63
2023-05-13T14:57:36.079Z,22.78
2023-05-13T15:00:04.088Z,22.86
2023-05-13T15:02:31.774Z,22.91
2023-05-13T15:04:59.543Z,23.06
2023-05-13T15:07:27.168Z,23.39
2023-05-13T15:09:55.603Z,23.61
2023-05-13T15:12:23.091Z,23.68
2023-05-13T15:14:54.806Z,23.59
2023-05-13T15:17:22.406Z,23.34
2023-05-13T15:19:50.046Z,23.13
2023-05-13T15:22:18.549Z,22.94
2023-05-13T15:24:46.120Z,22.65
2023-05-13T15:27:14.159Z,22.52
2023-05-13T15:29:41.624Z,22.41
2023-05-13T15:32:09.105Z,22.36
2023-05-13T15:34:36.575Z,22.31
2023-05-13T15:37:04.170Z,22.17
2023-05-13T15:39:31.732Z,22.10
2023-05-13T15:41:59.445Z,22.01
2023-05-13T15:44:27.096Z,21.89
2023-05-13T15:46:54.879Z,21.74
2023-05-13T15:49:23.152Z,21.69
2023-05-13T15:51:51.415Z,21.61
2023-05-13T15:54:18.888Z,21.57
2023-05-13T15:56:46.404Z,21.50
2023-05-13T15:59:13.957Z,21.40
2023-05-13T16:01:41.725Z,21.28
2023-05-13T16:04:09.815Z,21.18
2023-05-13T16:06:37.332Z,21.12
2023-05-13T16:09:05.074Z,21.02
2023-05-13T16:11:32.601Z,20.90
2023-05-13T16:14:00.539Z,20.67
2023-05-13T16:16:28.161Z,20.55
2023-05-13T16:18:55.698Z,20.55
2023-05-13T16:21:23.219Z,20.55
2023-05-13T16:23:51.018Z,20.52
2023-05-13T16:26:18.571Z,20.45
2023-05-13T16:28:46.109Z,20.39
2023-05-13T16:31:13.617Z,20.35
2023-05-13T16:33:41.217Z,20.30
2023-05-13T16:36:11.736Z,20.26
2023-05-13T16:38:41.437Z,20.22
2023-05-13T16:41:09.077Z,20.18
2023-05-13T16:43:36.560Z,20.17
2023-05-13T16:46:04.103Z,20.14
2023-05-13T16:48:31.630Z,20.11
2023-05-13T16:50:59.144Z,20.09
2023-05-13T16:53:26.680Z,20.06
2023-05-13T16:55:54.201Z,20.03
2023-05-13T16:58:21.696Z,19.98
2023-05-13T17:00:49.296Z,19.94
2023-05-13T17:03:16.882Z,19.89
2023-05-13T17:05:45.226Z,19.82
2023-05-13T17:08:12.706Z,19.80
2023-05-13T17:10:40.347Z,19.80
2023-05-13T17:13:07.812Z,19.82
2023-05-13T17:15:35.326Z,19.82
2023-05-13T17:18:03.045Z,19.83
2023-05-13T17:20:30.592Z,19.80
2023-05-13T17:22:58.274Z,19.78
2023-05-13T17:25:25.840Z,19.74
2023-05-13T17:27:53.355Z,19.72
2023-05-13T17:30:21.267Z,19.66
2023-05-13T17:32:48.991Z,19.60
2023-05-13T17:35:16.568Z,19.55
2023-05-13T17:37:44.056Z,19.55
2023-05-13T17:40:12.182Z,19.54
2023-05-13T17:42:39.709Z,19.48
2023-05-13T17:45:08.283Z,19.44
2023-05-13T17:47:35.913Z,19.46
2023-05-13T17:50:04.188Z,19.46
2023-05-13T17:52:31.706Z,19.45
2023-05-13T17:55:00.126Z,19.45
2023-05-13T17:57:27.891Z,19.43
2023-05-13T17:59:55.380Z,19.42
2023-05-13T18:02:24.027Z,19.40
2023-05-13T18:04:52.470Z,19.37
2023-05-13T18:07:19.972Z,19.35
2023-05-13T18:09:49.911Z,19.32
2023-05-13T18:12:18.068Z,19.34
2023-05-13T18:14:45.551Z,19.34
2023-05-13T18:17:13.041Z,19.33
2023-05-13T18:19:40.570Z,19.32
2023-05-13T18:22:10.940Z,19.30
2023-05-13T18:24:39.054Z,19.25
2023-05-13T18:27:10.091Z,19.20
2023-05-13T18:29:37.646Z,19.18
2023-05-13T18:32:05.588Z,19.16
2023-05-13T18:34:33.726Z,19.14
2023-05-13T18:37:01.520Z,19.11
2023-05-13T18:39:28.999Z,19.07
2023-05-13T18:41:56.496Z,19.05
2023-05-13T18:44:23.969Z,19.02
2023-05-13T18:46:52.970Z,18.97
2023-05-13T18:49:20.546Z,18.92
2023-05-13T18:51:48.125Z,18.89
2023-05-13T18:54:16.075Z,18.87
2023-05-13T18:56:44.332Z,18.86
2023-05-13T18:59:12.838Z,18.87
2023-05-13T19:01:42.060Z,18.87
2023-05-13T19:04:09.678Z,18.81
2023-05-13T19:06:37.952Z,18.77
2023-05-13T19:09:05.517Z,18.77
2023-05-13T19:11:33.342Z,18.71
2023-05-13T19:14:00.831Z,18.65
2023-05-13T19:16:28.398Z,18.60
2023-05-13T19:18:56.082Z,18.52
2023-05-13T19:21:23.688Z,18.48
2023-05-13T19:23:51.208Z,18.45
2023-05-13T19:26:18.836Z,18.40
2023-05-13T19:28:46.801Z,18.37
2023-05-13T19:31:14.361Z,18.36
2023-05-13T19:33:43.463Z,18.36
2023-05-13T19:36:12.156Z,18.35
2023-05-13T19:38:39.694Z,18.32
2023-05-13T19:41:07.187Z,18.29
2023-05-13T19:43:34.707Z,18.27
2023-05-13T19:46:02.301Z,18.24
2023-05-13T19:48:30.561Z,18.21
2023-05-13T19:50:58.359Z,18.16
2023-05-13T19:53:26.141Z,18.12
2023-05-13T19:55:54.282Z,18.08
2023-05-13T19:58:21.947Z,18.05
2023-05-13T20:00:49.450Z,18.03
2023-05-13T20:03:17.051Z,17.99
2023-05-13T20:05:44.641Z,17.94
2023-05-13T20:08:12.433Z,17.87
2023-05-13T20:10:40.433Z,17.79
2023-05-13T20:13:07.928Z,17.72
2023-05-13T20:15:35.443Z,17.68
2023-05-13T20:18:02.938Z,17.66
2023-05-13T20:20:30.605Z,17.63
2023-05-13T20:22:58.063Z,17.61
2023-05-13T20:25:25.613Z,17.56
2023-05-13T20:27:53.089Z,17.51
2023-05-13T20:30:21.803Z,17.42
2023-05-13T20:32:49.531Z,17.36
2023-05-13T20:35:17.098Z,17.30
2023-05-13T20:37:44.585Z,17.26
2023-05-13T20:40:12.499Z,17.22
2023-05-13T20:42:40.005Z,17.17
2023-05-13T20:45:08.563Z,17.11
2023-05-13T20:47:36.384Z,17.07
2023-05-13T20:50:04.286Z,17.00
2023-05-13T20:52:31.827Z,16.93
2023-05-13T20:54:59.449Z,16.90
2023-05-13T20:57:27.427Z,16.90
2023-05-13T20:59:55.401Z,16.92
2023-05-13T21:02:23.051Z,16.91
2023-05-13T21:04:50.623Z,16.90
2023-05-13T21:07:18.133Z,16.90
2023-05-13T21:09:45.609Z,16.92
2023-05-13T21:12:13.221Z,16.93
2023-05-13T21:14:41.284Z,16.95
2023-05-13T21:17:09.159Z,16.95
2023-05-13T21:19:36.645Z,16.93
2023-05-13T21:22:05.816Z,16.90
2023-05-13T21:24:33.331Z,16.89
2023-05-13T21:27:00.818Z,16.85
2023-05-13T21:29:30.057Z,16.82
2023-05-13T21:31:57.585Z,16.77
2023-05-13T21:34:25.200Z,16.74
2023-05-13T21:36:53.392Z,16.73
2023-05-13T21:39:21.467Z,16.72
2023-05-13T21:41:49.105Z,16.71
2023-05-13T21:44:16.606Z,16.71
2023-05-13T21:46:44.131Z,16.71
2023-05-13T21:49:11.848Z,16.70
2023-05-13T21:51:40.176Z,16.69
2023-05-13T21:54:07.666Z,16.69
2023-05-13T21:56:35.252Z,16.68
2023-05-13T21:59:02.740Z,16.69
2023-05-13T22:01:30.353Z,16.67
2023-05-13T22:03:57.832Z,16.70
2023-05-13T22:06:25.468Z,16.70
2023-05-13T22:08:52.985Z,16.72
2023-05-13T22:11:20.980Z,16.73
2023-05-13T22:13:48.460Z,16.74
2023-05-13T22:16:16.052Z,16.74
2023-05-13T22:18:43.799Z,16.74
2023-05-13T22:21:11.449Z,16.74
2023-05-13T22:23:38.958Z,16.72
2023-05-13T22:26:06.487Z,16.70
2023-05-13T22:28:34.022Z,16.72
2023-05-13T22:31:01.555Z,16.72
2023-05-13T22:33:29.095Z,16.70
2023-05-13T22:35:56.584Z,16.69
2023-05-13T22:38:24.053Z,16.62
2023-05-13T22:40:51.567Z,16.57
2023-05-13T22:43:19.063Z,16.56
2023-05-13T22:45:46.615Z,16.53
2023-05-13T22:48:14.971Z,16.54
2023-05-13T22:50:42.464Z,16.53
2023-05-13T22:53:10.298Z,16.53
2023-05-13T22:55:37.852Z,16.52
2023-05-13T22:58:05.582Z,16.51
2023-05-13T23:00:33.096Z,16.52
2023-05-13T23:03:00.699Z,16.53
2023-05-13T23:05:28.223Z,16.49
2023-05-13T23:07:55.846Z,16.47
2023-05-13T23:10:23.768Z,16.47
2023-05-13T23:12:51.710Z,16.47
2023-05-13T23:15:19.277Z,16.45
2023-05-13T23:17:47.099Z,16.43
2023-05-13T23:20:14.653Z,16.43
2023-05-13T23:22:42.241Z,16.41
2023-05-13T23:25:10.098Z,16.44
2023-05-13T23:27:37.618Z,16.41
2023-05-13T23:30:06.019Z,16.39
2023-05-13T23:32:33.583Z,16.36
2023-05-13T23:35:01.174Z,16.31
2023-05-13T23:37:28.671Z,16.30
2023-05-13T23:39:56.260Z,16.27
2023-05-13T23:42:23.742Z,16.25
2023-05-13T23:44:51.383Z,16.23
2023-05-13T23:47:18.905Z,16.20
2023-05-13T23:49:46.461Z,16.20
2023-05-13T23:52:14.070Z,16.18
2023-05-13T23:54:41.842Z,16.14
2023-05-13T23:57:09.317Z,16.08
2023-05-13T23:59:36.860Z,16.04
